createdAt,value
2023-05-02T00:00:57.591Z,100751.72
2023-05-02T00:03:25.287Z,100744.09
2023-05-02T00:05:52.960Z,100756.78
2023-05-02T00:08:21.920Z,100746.88
2023-05-02T00:10:49.548Z,100740.25
2023-05-02T00:13:17.229Z,100746.88
2023-05-02T00:15:44.769Z,100746.91
2023-05-02T00:18:12.513Z,100745.72
2023-05-02T00:20:45.764Z,100743.97
2023-05-02T00:23:13.756Z,100746.00
2023-05-02T00:25:46.646Z,100734.16
2023-05-02T00:28:17.659Z,100739.06
2023-05-02T00:30:45.464Z,100742.25
2023-05-02T00:33:14.792Z,100736.59
2023-05-02T00:35:42.853Z,100737.69
2023-05-02T00:38:10.567Z,100734.00
2023-05-02T00:40:48.016Z,100735.81
2023-05-02T00:43:15.895Z,100740.44
2023-05-02T00:45:44.447Z,100742.22
2023-05-02T00:48:12.280Z,100734.31
2023-05-02T00:50:41.345Z,100732.66
2023-05-02T00:53:12.295Z,100747.34
2023-05-02T00:55:39.990Z,100740.44
2023-05-02T00:58:09.880Z,100743.63
2023-05-02T01:00:40.830Z,100743.19
2023-05-02T01:03:11.550Z,100738.03
2023-05-02T01:05:40.524Z,100740.78
2023-05-02T01:08:10.108Z,100746.88
2023-05-02T01:10:41.537Z,100744.25
2023-05-02T01:13:11.209Z,100745.84
2023-05-02T01:15:39.274Z,100746.38
2023-05-02T01:18:07.301Z,100747.94
2023-05-02T01:20:35.902Z,100753.19
2023-05-02T01:23:04.717Z,100749.97
2023-05-02T01:25:33.193Z,100752.84
2023-05-02T01:28:03.262Z,100750.41
2023-05-02T01:30:35.248Z,100749.09
2023-05-02T01:33:03.196Z,100757.75
2023-05-02T01:35:30.792Z,100761.22
2023-05-02T01:37:58.423Z,100763.25
2023-05-02T01:40:26.534Z,100760.69
2023-05-02T01:42:54.468Z,100770.03
2023-05-02T01:45:22.406Z,100763.28
2023-05-02T01:47:51.469Z,100769.25
2023-05-02T01:50:20.306Z,100773.28
2023-05-02T01:52:48.134Z,100774.84
2023-05-02T01:55:16.695Z,100778.75
2023-05-02T01:57:44.916Z,100776.53
2023-05-02T02:00:13.018Z,100782.19
2023-05-02T02:02:40.991Z,100777.44
2023-05-02T02:05:10.695Z,100780.28
2023-05-02T02:07:38.354Z,100772.81
2023-05-02T02:10:06.346Z,100780.69
2023-05-02T02:12:40.119Z,100780.44
2023-05-02T02:15:10.249Z,100776.72
2023-05-02T02:17:38.548Z,100776.31
2023-05-02T02:20:06.998Z,100786.69
2023-05-02T02:22:38.025Z,100795.19
2023-05-02T02:25:06.733Z,100793.34
2023-05-02T02:27:34.304Z,100798.00
2023-05-02T02:30:02.139Z,100802.72
2023-05-02T02:32:29.973Z,100809.31
2023-05-02T02:34:57.597Z,100815.00
2023-05-02T02:37:26.376Z,100809.94
2023-05-02T02:39:59.907Z,100817.47
2023-05-02T02:42:29.687Z,100825.34
2023-05-02T02:44:58.562Z,100829.28
2023-05-02T02:47:27.609Z,100824.41
2023-05-02T02:50:00.964Z,100826.91
2023-05-02T02:52:33.960Z,100834.31
2023-05-02T02:55:06.272Z,100832.00
2023-05-02T02:57:36.935Z,100834.66
2023-05-02T03:00:08.420Z,100846.66
2023-05-02T03:02:37.057Z,100839.28
2023-05-02T03:05:05.466Z,100844.63
2023-05-02T03:07:33.121Z,100858.91
2023-05-02T03:10:05.885Z,100864.66
2023-05-02T03:12:35.513Z,100876.06
2023-05-02T03:15:08.618Z,100875.44
2023-05-02T03:17:36.772Z,100886.88
2023-05-02T03:20:04.706Z,100895.00
2023-05-02T03:22:32.404Z,100896.75
2023-05-02T03:25:01.490Z,100901.09
2023-05-02T03:27:31.906Z,100897.84
2023-05-02T03:30:01.861Z,100903.63
2023-05-02T03:32:32.179Z,100912.00
2023-05-02T03:35:00.266Z,100924.97
2023-05-02T03:37:34.995Z,100912.50
2023-05-02T03:40:02.897Z,100915.75
2023-05-02T03:42:32.038Z,100924.97
2023-05-02T03:44:59.776Z,100914.75
2023-05-02T03:47:28.997Z,100923.44
2023-05-02T03:49:57.308Z,100922.84
2023-05-02T03:52:31.521Z,100926.25
2023-05-02T03:54:59.207Z,100926.50
2023-05-02T03:57:26.872Z,100930.31
2023-05-02T03:59:56.780Z,100936.38
2023-05-02T04:02:28.963Z,100941.44
2023-05-02T04:04:57.388Z,100954.47
2023-05-02T04:07:25.885Z,100948.63
2023-05-02T04:10:04.017Z,100962.31
2023-05-02T04:12:36.526Z,100970.44
2023-05-02T04:15:06.204Z,100962.56
2023-05-02T04:17:33.916Z,100963.19
2023-05-02T04:20:04.836Z,100971.13
2023-05-02T04:22:34.798Z,100970.91
2023-05-02T04:25:07.641Z,100972.78
2023-05-02T04:27:38.565Z,100970.25
2023-05-02T04:30:11.154Z,100975.50
2023-05-02T04:32:39.665Z,100980.66
2023-05-02T04:35:07.924Z,100979.03
2023-05-02T04:37:35.880Z,100986.13
2023-05-02T04:40:04.495Z,100982.28
2023-05-02T04:42:32.618Z,100992.63
2023-05-02T04:45:14.514Z,100999.44
2023-05-02T04:47:44.302Z,101001.09
2023-05-02T04:50:12.193Z,101002.09
2023-05-02T04:52:39.895Z,101009.31
2023-05-02T04:55:08.241Z,101011.53
2023-05-02T04:57:40.130Z,101019.25
2023-05-02T05:00:11.129Z,101014.03
2023-05-02T05:02:40.338Z,101033.94
2023-05-02T05:05:10.300Z,101038.72
2023-05-02T05:07:38.093Z,101035.19
2023-05-02T05:10:06.892Z,101035.66
2023-05-02T05:12:41.412Z,101042.31
2023-05-02T05:15:11.880Z,101048.81
2023-05-02T05:17:45.394Z,101047.84
2023-05-02T05:20:13.590Z,101046.94
2023-05-02T05:22:42.342Z,101053.13
2023-05-02T05:25:12.642Z,101063.91
2023-05-02T05:27:41.107Z,101062.34
2023-05-02T05:30:12.222Z,101073.31
2023-05-02T05:32:40.806Z,101076.88
2023-05-02T05:35:10.631Z,101084.00
2023-05-02T05:37:39.549Z,101084.75
2023-05-02T05:40:10.143Z,101085.03
2023-05-02T05:42:39.894Z,101087.47
2023-05-02T05:45:13.899Z,101096.19
2023-05-02T05:47:41.653Z,101097.31
2023-05-02T05:50:11.158Z,101098.09
2023-05-02T05:52:39.509Z,101097.88
2023-05-02T05:55:07.859Z,101108.28
2023-05-02T05:57:35.787Z,101097.31
2023-05-02T06:00:03.888Z,101109.41
2023-05-02T06:02:43.354Z,101116.91
2023-05-02T06:05:19.536Z,101114.03
2023-05-02T06:07:47.208Z,101124.47
2023-05-02T06:10:14.912Z,101131.81
2023-05-02T06:12:46.117Z,101137.38
2023-05-02T06:15:15.373Z,101146.06
2023-05-02T06:17:43.426Z,101146.03
2023-05-02T06:20:11.261Z,101152.53
2023-05-02T06:22:43.025Z,101156.81
2023-05-02T06:25:13.068Z,101166.44
2023-05-02T06:27:40.746Z,101164.19
2023-05-02T06:30:09.015Z,101157.97
2023-05-02T06:32:36.774Z,101172.88
2023-05-02T06:35:04.565Z,101171.72
2023-05-02T06:37:34.356Z,101180.84
2023-05-02T06:40:03.724Z,101178.38
2023-05-02T06:42:33.670Z,101177.47
2023-05-02T06:45:01.320Z,101185.53
2023-05-02T06:47:29.177Z,101181.59
2023-05-02T06:49:57.199Z,101184.06
2023-05-02T06:52:25.147Z,101194.03
2023-05-02T06:54:52.835Z,101201.00
2023-05-02T06:57:21.870Z,101208.69
2023-05-02T06:59:49.535Z,101221.03
2023-05-02T07:02:17.310Z,101228.06
2023-05-02T07:04:45.355Z,101227.91
2023-05-02T07:07:13.126Z,101240.81
2023-05-02T07:09:41.209Z,101254.38
2023-05-02T07:12:09.778Z,101248.28
2023-05-02T07:14:39.556Z,101245.22
2023-05-02T07:17:07.340Z,101254.00
2023-05-02T07:19:35.283Z,101250.81
2023-05-02T07:22:03.056Z,101262.97
2023-05-02T07:24:30.702Z,101261.81
2023-05-02T07:26:58.330Z,101262.84
2023-05-02T07:29:26.008Z,101270.00
2023-05-02T07:31:55.102Z,101273.72
2023-05-02T07:34:22.770Z,101276.84
2023-05-02T07:36:50.380Z,101277.69
2023-05-02T07:39:18.093Z,101283.81
2023-05-02T07:41:45.721Z,101281.25
2023-05-02T07:44:13.399Z,101283.44
2023-05-02T07:46:41.239Z,101282.63
2023-05-02T07:49:10.482Z,101291.44
2023-05-02T07:51:39.731Z,101294.13
2023-05-02T07:54:15.794Z,101285.28
2023-05-02T07:56:43.709Z,101292.72
2023-05-02T07:59:11.410Z,101297.63
2023-05-02T08:01:39.374Z,101298.69
2023-05-02T08:04:07.221Z,101311.06
2023-05-02T08:06:36.817Z,101308.06
2023-05-02T08:09:04.690Z,101299.97
2023-05-02T08:11:32.420Z,101308.34
2023-05-02T08:14:00.072Z,101309.13
2023-05-02T08:16:27.911Z,101317.63
2023-05-02T08:18:55.618Z,101314.94
2023-05-02T08:21:23.199Z,101322.78
2023-05-02T08:23:52.243Z,101338.31
2023-05-02T08:26:21.751Z,101329.94
2023-05-02T08:28:49.438Z,101330.97
2023-05-02T08:31:17.155Z,101338.63
2023-05-02T08:33:44.866Z,101330.75
2023-05-02T08:36:13.042Z,101335.00
2023-05-02T08:38:40.711Z,101340.47
2023-05-02T08:41:12.742Z,101342.00
2023-05-02T08:43:40.714Z,101346.06
2023-05-02T08:46:08.950Z,101335.13
2023-05-02T08:48:40.773Z,101347.44
2023-05-02T08:51:09.578Z,101352.50
2023-05-02T08:53:37.435Z,101344.19
2023-05-02T08:56:05.258Z,101348.44
2023-05-02T08:58:34.602Z,101354.59
2023-05-02T09:01:03.128Z,101360.84
2023-05-02T09:03:31.665Z,101354.16
2023-05-02T09:06:05.506Z,101364.50
2023-05-02T09:08:33.145Z,101380.16
2023-05-02T09:11:01.025Z,101373.94
2023-05-02T09:13:32.258Z,101390.66
2023-05-02T09:16:02.135Z,101390.00
2023-05-02T09:18:30.142Z,101400.91
2023-05-02T09:20:58.925Z,101391.88
2023-05-02T09:23:36.260Z,101405.03
2023-05-02T09:26:05.660Z,101401.22
2023-05-02T09:28:39.949Z,101404.97
2023-05-02T09:31:09.707Z,101405.63
2023-05-02T09:33:37.672Z,101405.25
2023-05-02T09:36:06.926Z,101412.81
2023-05-02T09:38:34.688Z,101407.72
2023-05-02T09:41:03.358Z,101416.97
2023-05-02T09:43:32.126Z,101419.59
2023-05-02T09:46:00.274Z,101419.94
2023-05-02T09:48:29.821Z,101421.22
2023-05-02T09:50:57.486Z,101416.78
2023-05-02T09:53:25.845Z,101417.00
2023-05-02T09:56:03.688Z,101424.09
2023-05-02T09:58:31.979Z,101430.00
2023-05-02T10:00:59.994Z,101430.81
2023-05-02T10:03:29.471Z,101447.28
2023-05-02T10:05:57.367Z,101440.06
2023-05-02T10:08:26.729Z,101446.66
2023-05-02T10:10:55.150Z,101445.63
2023-05-02T10:13:24.416Z,101452.94
2023-05-02T10:15:56.354Z,101459.56
2023-05-02T10:18:28.169Z,101456.06
2023-05-02T10:20:58.833Z,101458.13
2023-05-02T10:23:26.995Z,101454.94
2023-05-02T10:25:54.797Z,101458.72
2023-05-02T10:28:22.585Z,101454.66
2023-05-02T10:30:51.045Z,101459.56
2023-05-02T10:33:19.484Z,101467.88
2023-05-02T10:35:47.612Z,101475.69
2023-05-02T10:38:19.214Z,101483.50
2023-05-02T10:40:55.753Z,101475.41
2023-05-02T10:43:24.711Z,101495.66
2023-05-02T10:45:52.405Z,101484.41
2023-05-02T10:48:21.384Z,101501.28
2023-05-02T10:50:51.203Z,101510.94
2023-05-02T10:53:27.313Z,101509.50
2023-05-02T10:56:10.947Z,101518.75
2023-05-02T10:58:38.600Z,101518.25
2023-05-02T11:01:24.658Z,101515.75
2023-05-02T11:03:55.886Z,101541.72
2023-05-02T11:06:23.762Z,101546.88
2023-05-02T11:08:53.023Z,101548.66
2023-05-02T11:11:42.255Z,101542.84
2023-05-02T11:14:10.160Z,101552.22
2023-05-02T11:17:06.685Z,101569.75
2023-05-02T11:19:49.221Z,101560.69
2023-05-02T11:22:32.420Z,101563.78
2023-05-02T11:25:01.700Z,101571.91
2023-05-02T11:27:43.923Z,101581.66
2023-05-02T11:30:12.812Z,101580.41
2023-05-02T11:32:59.455Z,101583.44
2023-05-02T11:35:27.817Z,101588.00
2023-05-02T11:37:55.505Z,101591.94
2023-05-02T11:40:24.789Z,101599.28
2023-05-02T11:42:52.452Z,101599.69
2023-05-02T11:45:20.927Z,101592.34
2023-05-02T11:47:48.810Z,101590.09
2023-05-02T11:50:16.523Z,101592.50
2023-05-02T11:52:44.728Z,101598.50
2023-05-02T11:55:12.704Z,101598.69
2023-05-02T11:57:42.410Z,101594.06
2023-05-02T12:00:13.778Z,101604.97
2023-05-02T12:02:42.162Z,101603.09
2023-05-02T12:05:10.685Z,101611.97
2023-05-02T12:07:38.965Z,101614.09
2023-05-02T12:10:07.152Z,101626.09
2023-05-02T12:12:34.909Z,101615.56
2023-05-02T12:15:06.310Z,101621.47
2023-05-02T12:17:34.399Z,101613.66
2023-05-02T12:20:02.124Z,101622.88
2023-05-02T12:22:29.751Z,101626.56
2023-05-02T12:24:57.368Z,101621.28
2023-05-02T12:27:25.258Z,101631.53
2023-05-02T12:29:52.968Z,101630.38
2023-05-02T12:32:33.200Z,101637.13
2023-05-02T12:35:03.303Z,101636.22
2023-05-02T12:37:31.140Z,101637.31
2023-05-02T12:40:01.044Z,101639.22
2023-05-02T12:42:28.886Z,101642.94
2023-05-02T12:44:57.013Z,101638.69
2023-05-02T12:47:25.130Z,101639.69
2023-05-02T12:49:54.891Z,101634.38
2023-05-02T12:52:22.857Z,101642.16
2023-05-02T12:54:50.461Z,101641.09
2023-05-02T12:57:24.819Z,101648.84
2023-05-02T12:59:52.783Z,101648.44
2023-05-02T13:02:20.567Z,101649.16
2023-05-02T13:04:48.205Z,101653.88
2023-05-02T13:07:17.255Z,101648.03
2023-05-02T13:09:45.060Z,101642.88
2023-05-02T13:12:12.721Z,101651.88
2023-05-02T13:14:40.423Z,101656.56
2023-05-02T13:17:08.712Z,101658.00
2023-05-02T13:19:38.678Z,101667.47
2023-05-02T13:22:06.717Z,101672.59
2023-05-02T13:24:36.081Z,101682.81
2023-05-02T13:27:03.674Z,101665.81
2023-05-02T13:29:31.672Z,101663.25
2023-05-02T13:31:59.242Z,101674.03
2023-05-02T13:34:26.926Z,101676.00
2023-05-02T13:36:54.588Z,101677.00
2023-05-02T13:39:22.290Z,101678.81
2023-05-02T13:41:51.296Z,101695.94
2023-05-02T13:44:18.982Z,101692.94
2023-05-02T13:46:47.834Z,101698.63
2023-05-02T13:49:15.634Z,101692.28
2023-05-02T13:51:43.239Z,101707.13
2023-05-02T13:54:10.977Z,101680.94
2023-05-02T13:56:39.821Z,101686.44
2023-05-02T13:59:10.335Z,101690.34
2023-05-02T14:01:41.815Z,101705.19
2023-05-02T14:04:09.667Z,101704.50
2023-05-02T14:06:37.570Z,101687.97
2023-05-02T14:09:05.394Z,101708.63
2023-05-02T14:11:33.292Z,101711.72
2023-05-02T14:14:00.970Z,101715.69
2023-05-02T14:16:30.084Z,101710.34
2023-05-02T14:18:57.777Z,101707.34
2023-05-02T14:21:25.399Z,101722.25
2023-05-02T14:23:53.051Z,101708.53
2023-05-02T14:26:20.690Z,101713.53
2023-05-02T14:28:48.307Z,101733.47
2023-05-02T14:31:15.954Z,101727.75
2023-05-02T14:33:44.952Z,101729.16
2023-05-02T14:36:13.026Z,101726.81
2023-05-02T14:38:40.781Z,101737.22
2023-05-02T14:41:08.402Z,101739.13
2023-05-02T14:43:36.314Z,101743.56
2023-05-02T14:46:03.987Z,101751.81
2023-05-02T14:48:31.613Z,101742.84
2023-05-02T14:51:01.265Z,101750.81
2023-05-02T14:53:28.906Z,101760.63
2023-05-02T14:55:56.540Z,101771.75
2023-05-02T14:58:24.147Z,101770.41
2023-05-02T15:00:52.499Z,101779.31
2023-05-02T15:03:20.225Z,101778.41
2023-05-02T15:05:47.991Z,101775.56
2023-05-02T15:08:16.939Z,101779.72
2023-05-02T15:10:44.585Z,101768.69
2023-05-02T15:13:12.286Z,101772.72
2023-05-02T15:15:39.905Z,101779.34
2023-05-02T15:18:07.710Z,101789.34
2023-05-02T15:20:35.406Z,101798.28
2023-05-02T15:23:03.998Z,101791.16
2023-05-02T15:25:32.996Z,101785.16
2023-05-02T15:28:02.505Z,101794.34
2023-05-02T15:30:30.220Z,101797.84
2023-05-02T15:32:57.948Z,101790.22
2023-05-02T15:35:25.604Z,101793.38
2023-05-02T15:37:53.247Z,101791.84
2023-05-02T15:40:20.957Z,101806.72
2023-05-02T15:42:50.189Z,101811.56
2023-05-02T15:45:17.889Z,101820.75
2023-05-02T15:47:45.584Z,101811.38
2023-05-02T15:50:13.582Z,101806.94
2023-05-02T15:52:41.237Z,101806.47
2023-05-02T15:55:09.102Z,101801.69
2023-05-02T15:57:36.726Z,101803.38
2023-05-02T16:00:06.658Z,101799.75
2023-05-02T16:02:34.619Z,101799.16
2023-05-02T16:05:02.214Z,101802.19
2023-05-02T16:07:29.841Z,101803.31
2023-05-02T16:09:57.522Z,101806.28
2023-05-02T16:12:26.458Z,101802.66
2023-05-02T16:14:54.114Z,101814.72
2023-05-02T16:17:23.131Z,101799.28
2023-05-02T16:19:53.163Z,101817.22
2023-05-02T16:22:20.738Z,101819.06
2023-05-02T16:24:48.360Z,101808.75
2023-05-02T16:27:16.004Z,101812.56
2023-05-02T16:29:43.641Z,101813.69
2023-05-02T16:32:11.241Z,101813.38
2023-05-02T16:34:40.347Z,101809.59
2023-05-02T16:37:07.953Z,101815.78
2023-05-02T16:39:35.906Z,101817.28
2023-05-02T16:42:03.682Z,101813.75
2023-05-02T16:44:31.384Z,101812.53
2023-05-02T16:46:59.060Z,101813.69
2023-05-02T16:49:26.724Z,101813.22
2023-05-02T16:51:56.060Z,101810.56
2023-05-02T16:54:24.081Z,101808.91
2023-05-02T16:56:52.003Z,101810.28
2023-05-02T16:59:21.513Z,101810.22
2023-05-02T17:01:49.955Z,101809.16
2023-05-02T17:04:17.564Z,101811.25
2023-05-02T17:06:45.298Z,101818.22
2023-05-02T17:09:14.575Z,101812.00
2023-05-02T17:11:42.330Z,101818.06
2023-05-02T17:14:10.281Z,101817.19
2023-05-02T17:16:37.926Z,101829.31
2023-05-02T17:19:06.508Z,101819.47
2023-05-02T17:21:34.148Z,101825.34
2023-05-02T17:24:01.875Z,101816.47
2023-05-02T17:26:30.871Z,101825.81
2023-05-02T17:28:58.578Z,101834.78
2023-05-02T17:31:26.434Z,101836.72
2023-05-02T17:33:54.161Z,101838.31
2023-05-02T17:36:21.756Z,101845.31
2023-05-02T17:38:49.417Z,101839.84
2023-05-02T17:41:17.055Z,101846.47
2023-05-02T17:43:47.266Z,101853.59
2023-05-02T17:46:14.882Z,101844.34
2023-05-02T17:48:43.736Z,101854.22
2023-05-02T17:51:11.764Z,101850.16
2023-05-02T17:53:39.425Z,101853.09
2023-05-02T17:56:07.421Z,101849.00
2023-05-02T17:58:36.508Z,101859.75
2023-05-02T18:01:11.776Z,101850.34
2023-05-02T18:03:39.585Z,101859.06
2023-05-02T18:06:07.481Z,101855.69
2023-05-02T18:08:35.227Z,101859.16
2023-05-02T18:11:03.299Z,101880.84
2023-05-02T18:13:31.087Z,101864.56
2023-05-02T18:15:58.783Z,101874.84
2023-05-02T18:18:27.855Z,101867.56
2023-05-02T18:20:55.808Z,101867.63
2023-05-02T18:23:23.504Z,101873.81
2023-05-02T18:25:51.387Z,101878.41
2023-05-02T18:28:19.231Z,101875.91
2023-05-02T18:30:46.862Z,101875.25
2023-05-02T18:33:16.095Z,101879.41
2023-05-02T18:35:47.960Z,101874.94
2023-05-02T18:38:15.709Z,101881.22
2023-05-02T18:40:46.010Z,101886.09
2023-05-02T18:43:13.731Z,101890.22
2023-05-02T18:45:41.401Z,101883.03
2023-05-02T18:48:09.171Z,101884.03
2023-05-02T18:50:36.928Z,101888.72
2023-05-02T18:53:05.991Z,101887.13
2023-05-02T18:55:33.668Z,101888.84
2023-05-02T18:58:01.286Z,101889.97
2023-05-02T19:00:31.130Z,101893.38
2023-05-02T19:02:58.991Z,101895.69
2023-05-02T19:05:27.432Z,101898.38
2023-05-02T19:07:55.090Z,101891.34
2023-05-02T19:10:24.124Z,101902.88
2023-05-02T19:12:51.751Z,101903.56
2023-05-02T19:15:19.461Z,101905.44
2023-05-02T19:17:47.363Z,101907.44
2023-05-02T19:20:15.000Z,101914.41
2023-05-02T19:22:42.924Z,101912.50
2023-05-02T19:25:15.983Z,101918.78
2023-05-02T19:27:47.576Z,101922.44
2023-05-02T19:30:15.373Z,101928.06
2023-05-02T19:32:43.224Z,101931.94
2023-05-02T19:35:11.363Z,101935.88
2023-05-02T19:37:46.760Z,101940.44
2023-05-02T19:40:14.685Z,101936.94
2023-05-02T19:42:42.285Z,101943.53
2023-05-02T19:45:13.786Z,101945.34
2023-05-02T19:47:43.817Z,101935.78
2023-05-02T19:50:11.963Z,101942.59
2023-05-02T19:52:41.509Z,101948.72
2023-05-02T19:55:09.588Z,101961.34
2023-05-02T19:57:37.444Z,101961.13
2023-05-02T20:00:06.145Z,101962.44
2023-05-02T20:02:41.552Z,101970.63
2023-05-02T20:05:09.654Z,101963.06
2023-05-02T20:07:37.331Z,101959.59
2023-05-02T20:10:05.428Z,101969.09
2023-05-02T20:12:33.170Z,101969.03
2023-05-02T20:15:00.853Z,101968.13
2023-05-02T20:17:29.258Z,101972.53
2023-05-02T20:19:58.437Z,101974.31
2023-05-02T20:22:28.638Z,101977.06
2023-05-02T20:24:58.543Z,101985.50
2023-05-02T20:27:26.218Z,101982.34
2023-05-02T20:29:57.595Z,101980.66
2023-05-02T20:32:26.781Z,101986.13
2023-05-02T20:34:54.466Z,101991.75
2023-05-02T20:37:23.540Z,101993.25
2023-05-02T20:39:51.275Z,101989.28
2023-05-02T20:42:23.262Z,101995.53
2023-05-02T20:44:55.551Z,101995.38
2023-05-02T20:47:23.465Z,102004.31
2023-05-02T20:49:51.189Z,102000.63
2023-05-02T20:52:21.981Z,102003.38
2023-05-02T20:54:52.695Z,102004.69
2023-05-02T20:57:20.377Z,102012.91
2023-05-02T20:59:48.035Z,102016.38
2023-05-02T21:02:15.693Z,102015.41
2023-05-02T21:04:43.294Z,102012.91
2023-05-02T21:07:10.956Z,102021.88
2023-05-02T21:09:38.557Z,102017.28
2023-05-02T21:12:07.885Z,102024.47
2023-05-02T21:14:35.509Z,102030.56
2023-05-02T21:17:03.564Z,102022.44
2023-05-02T21:19:33.069Z,102027.03
2023-05-02T21:22:00.790Z,102029.13
2023-05-02T21:24:28.476Z,102027.22
2023-05-02T21:26:56.064Z,102025.69
2023-05-02T21:29:25.080Z,102033.81
2023-05-02T21:31:54.654Z,102029.84
2023-05-02T21:34:22.585Z,102032.47
2023-05-02T21:36:50.325Z,102025.22
2023-05-02T21:39:18.230Z,102039.03
2023-05-02T21:41:45.866Z,102029.75
2023-05-02T21:44:14.243Z,102026.41
2023-05-02T21:46:43.233Z,102044.22
2023-05-02T21:49:10.833Z,102035.38
2023-05-02T21:51:40.582Z,102038.78
2023-05-02T21:54:08.385Z,102031.22
2023-05-02T21:56:36.111Z,102036.25
2023-05-02T21:59:03.826Z,102035.81
2023-05-02T22:01:31.424Z,102027.59
2023-05-02T22:04:00.460Z,102032.41
2023-05-02T22:06:28.447Z,102035.09
2023-05-02T22:08:56.146Z,102035.47
2023-05-02T22:11:24.237Z,102043.84
2023-05-02T22:13:51.930Z,102043.75
2023-05-02T22:16:19.582Z,102049.13
2023-05-02T22:18:49.402Z,102047.47
2023-05-02T22:21:18.887Z,102053.34
2023-05-02T22:23:46.610Z,102054.91
2023-05-02T22:26:14.574Z,102051.28
2023-05-02T22:28:42.268Z,102051.50
2023-05-02T22:31:10.229Z,102060.84
2023-05-02T22:33:37.817Z,102067.28
2023-05-02T22:36:05.449Z,102066.69
2023-05-02T22:38:34.480Z,102072.41
2023-05-02T22:41:02.136Z,102068.38
2023-05-02T22:43:29.763Z,102065.69
2023-05-02T22:45:58.831Z,102077.47
2023-05-02T22:48:26.525Z,102078.06
2023-05-02T22:50:54.155Z,102079.94
2023-05-02T22:53:22.791Z,102078.69
2023-05-02T22:55:51.804Z,102079.34
2023-05-02T22:58:19.445Z,102080.88
2023-05-02T23:00:47.272Z,102084.72
2023-05-02T23:03:15.016Z,102086.47
2023-05-02T23:05:42.721Z,102094.66
2023-05-02T23:08:10.369Z,102095.03
2023-05-02T23:10:38.016Z,102092.53
2023-05-02T23:13:06.998Z,102095.16
2023-05-02T23:15:34.634Z,102097.38
2023-05-02T23:18:02.302Z,102095.88
2023-05-02T23:20:29.957Z,102091.81
2023-05-02T23:22:57.655Z,102101.94
2023-05-02T23:25:26.344Z,102096.38
2023-05-02T23:27:54.021Z,102103.31
2023-05-02T23:30:23.086Z,102100.88
2023-05-02T23:32:51.517Z,102108.59
2023-05-02T23:35:19.423Z,102102.84
2023-05-02T23:37:47.010Z,102096.00
2023-05-02T23:40:15.273Z,102090.50
2023-05-02T23:42:42.930Z,102098.41
2023-05-02T23:45:10.937Z,102105.75
2023-05-02T23:47:39.932Z,102100.00
2023-05-02T23:50:08.309Z,102097.69
2023-05-02T23:52:35.992Z,102096.78
2023-05-02T23:55:04.146Z,102096.22
2023-05-02T23:57:31.859Z,102093.38
2023-05-02T23:59:59.504Z,102090.69
